Time;durP1;ratioP1;P1;durP2;ratioP2;P2;SDS_P1;SDS_P2;PMS_P1;PMS_P2;Temp;Humidity;BMP_temperature;BMP_pressure;BME280_temperature;BME280_humidity;BME280_pressure;Samples;Min_cycle;Max_cycle;Signal;HPM_P1;HPM_P2
2022/09/24 00:08:23;;;;;;;1.57;1.07;;;;;;;;;;20919099;23;20718;-83
2022/09/24 00:18:25;;;;;;;1.80;1.10;;;;;;;;;;20912800;28;20614;-83
2022/09/24 00:28:26;;;;;;;2.23;1.10;;;;;;;;;;20911542;28;20275;-86
2022/09/24 00:38:29;;;;;;;1.53;1.10;;;;;;;;;;20880678;28;20231;-86
2022/09/24 00:48:33;;;;;;;2.27;1.10;;;;;;;;;;20719535;28;20253;-86
2022/09/24 00:58:34;;;;;;;1.20;0.87;;;;;;;;;;20836345;28;20230;-85
2022/09/24 01:08:36;;;;;;;2.97;1.10;;;;;;;;;;20964289;28;20258;-85
2022/09/24 01:18:46;;;;;;;2.20;0.90;;;;;;;;;;20936235;28;20298;-83
2022/09/24 01:28:57;;;;;;;2.10;1.37;;;;;;;;;;20911695;28;20232;-87
2022/09/24 01:39:00;;;;;;;4.63;1.20;;;13.90;99.90;;;;;;20926064;28;20225;-86
2022/09/24 01:49:02;;;;;;;3.07;1.30;;;;;;;;;;20924298;28;20222;-85
2022/09/24 01:59:14;;;;;;;2.23;1.13;;;;;;;;;;20910442;28;20605;-85
2022/09/24 02:09:37;;;;;;;1.97;1.10;;;;;;;;;;20923481;28;20230;-86
2022/09/24 02:19:40;;;;;;;1.30;0.90;;;;;;;;;;20922862;28;20275;-83
2022/09/24 02:29:43;;;;;;;1.70;1.20;;;;;;;;;;20903519;28;20222;-83
2022/09/24 02:39:44;;;;;;;2.10;1.40;;;;;;;;;;20919543;28;20237;-83
2022/09/24 02:49:46;;;;;;;1.97;1.10;;;;;;;;;;20844113;28;20243;-84
2022/09/24 02:59:48;;;;;;;2.00;1.23;;;;;;;;;;20820332;28;20273;-84
2022/09/24 03:09:50;;;;;;;1.30;1.03;;;;;;;;;;20835140;28;20230;-81
2022/09/24 03:19:52;;;;;;;1.73;1.20;;;;;;;;;;20836334;28;20368;-84
2022/09/24 03:40:15;;;;;;;3.07;1.53;;;;;;;;;;20888745;28;20244;-83
2022/09/24 03:50:16;;;;;;;2.60;1.30;;;;;;;;;;20813947;28;20219;-84
2022/09/24 04:00:18;;;;;;;3.40;1.20;;;;;;;;;;20812150;28;20234;-84
2022/09/24 04:10:21;;;;;;;2.97;0.97;;;;;;;;;;20797825;28;20639;-83
2022/09/24 04:20:25;;;;;;;1.27;1.00;;;;;;;;;;20812568;28;20238;-83
2022/09/24 04:30:27;;;;;;;1.93;1.00;;;12.50;99.90;;;;;;20812875;28;20333;-84
2022/09/24 04:40:29;;;;;;;1.77;0.90;;;;;;;;;;20811407;28;20230;-84
2022/09/24 04:50:34;;;;;;;1.57;1.13;;;;;;;;;;20822390;28;20576;-85
2022/09/24 05:00:36;;;;;;;1.50;1.17;;;;;;;;;;20858140;28;20225;-85
2022/09/24 05:10:44;;;;;;;1.20;0.90;;;;;;;;;;20891700;28;20233;-85
2022/09/24 05:20:53;;;;;;;2.00;1.00;;;;;;;;;;20908493;28;20222;-85
2022/09/24 05:31:02;;;;;;;1.93;1.10;;;;;;;;;;20855811;28;20219;-84
2022/09/24 05:41:28;;;;;;;1.70;1.13;;;;;;;;;;20885216;28;20225;-84
2022/09/24 05:52:45;;;;;;;4.80;1.20;;;11.90;99.90;;;;;;20877299;28;20776;-85
2022/09/24 06:03:12;;;;;;;1.43;1.00;;;;;;;;;;21176522;22;20792;-73
2022/09/24 06:13:16;;;;;;;1.57;1.00;;;;;;;;;;21082864;28;20293;-73
2022/09/24 06:23:18;;;;;;;2.03;1.63;;;;;;;;;;21072345;28;20223;-73
2022/09/24 06:33:22;;;;;;;2.23;1.23;;;12.30;99.90;;;;;;21093689;28;20253;-74
2022/09/24 06:43:24;;;;;;;15.47;8.93;;;;;;;;;;21118268;28;20269;-73
2022/09/24 06:53:26;;;;;;;2.00;1.37;;;;;;;;;;21107958;28;20670;-72
2022/09/24 07:03:32;;;;;;;2.83;1.77;;;;;;;;;;21111356;22;20254;-75
2022/09/24 07:13:34;;;;;;;3.13;2.23;;;;;;;;;;21061658;28;20293;-76
2022/09/24 07:23:36;;;;;;;3.07;2.37;;;;;;;;;;21022226;28;20213;-76
2022/09/24 07:33:38;;;;;;;3.90;2.10;;;;;;;;;;20977964;28;20792;-75
2022/09/24 07:43:39;;;;;;;3.57;1.90;;;;;;;;;;21060509;28;20217;-75
2022/09/24 07:53:41;;;;;;;2.90;1.77;;;;;;;;;;21043730;28;20212;-75
2022/09/24 08:03:46;;;;;;;2.07;1.40;;;;;;;;;;21063462;28;20216;-76
2022/09/24 08:13:48;;;;;;;3.63;1.80;;;;;;;;;;21039001;28;20256;-75
2022/09/24 08:23:50;;;;;;;2.50;1.70;;;;;;;;;;21058623;28;20302;-76
2022/09/24 08:33:52;;;;;;;2.43;1.70;;;;;;;;;;21062138;28;20216;-75
2022/09/24 08:44:09;;;;;;;2.53;1.77;;;13.60;99.90;;;;;;21056826;28;20243;-75
2022/09/24 08:54:15;;;;;;;2.80;2.33;;;;;;;;;;21047774;28;20204;-76
2022/09/24 09:04:26;;;;;;;2.63;2.03;;;;;;;;;;21051422;28;20212;-76
2022/09/24 09:14:38;;;;;;;2.50;1.90;;;;;;;;;;21022434;28;20317;-76
2022/09/24 09:24:40;;;;;;;3.20;1.90;;;;;;;;;;21059995;28;20204;-76
2022/09/24 09:35:07;;;;;;;3.57;2.00;;;14.00;99.90;;;;;;21059890;28;20355;-76
2022/09/24 09:45:28;;;;;;;3.97;2.10;;;;;;;;;;21062649;28;20562;-76
2022/09/24 09:55:32;;;;;;;3.30;2.47;;;;;;;;;;21051332;28;20212;-75
2022/09/24 10:05:34;;;;;;;2.97;1.83;;;;;;;;;;21038600;28;20232;-75
2022/09/24 10:15:53;;;;;;;3.07;2.00;;;14.60;99.90;;;;;;21037956;28;20773;-74
2022/09/24 10:25:59;;;;;;;2.33;1.70;;;15.00;99.90;;;;;;21038200;28;20204;-73
2022/09/24 10:36:06;;;;;;;2.60;1.60;;;;;;;;;;21042159;28;20208;-74
2022/09/24 10:46:08;;;;;;;2.50;1.53;;;;;;;;;;21049429;28;20691;-75
2022/09/24 10:56:25;;;;;;;2.07;1.60;;;;;;;;;;21039815;28;20298;-74
2022/09/24 11:06:59;;;;;;;4.30;1.47;;;15.70;99.90;;;;;;21052731;28;20687;-74
2022/09/24 11:17:25;;;;;;;11.70;5.07;;;;;;;;;;21068016;28;20619;-74
2022/09/24 11:27:33;;;;;;;3.33;1.80;;;;;;;;;;21059526;28;20274;-73
2022/09/24 11:37:38;;;;;;;3.27;1.30;;;;;;;;;;21065130;28;20220;-74
2022/09/24 11:47:39;;;;;;;2.60;1.57;;;;;;;;;;21052072;28;20281;-73
2022/09/24 11:57:52;;;;;;;7.33;2.30;;;;;;;;;;21068215;28;20274;-74
2022/09/24 12:08:00;;;;;;;4.73;2.03;;;;;;;;;;21047171;28;20579;-74
2022/09/24 12:18:11;;;;;;;4.17;1.47;;;;;;;;;;21053936;28;20240;-74
2022/09/24 12:32:52;;;;;;;5.80;1.77;;;;;;;;;;21058207;28;20265;-74
2022/09/24 12:38:39;;;;;;;7.70;2.53;;;;;;;;;;21053619;28;20216;-74
2022/09/24 12:48:43;;;;;;;6.33;2.47;;;;;;;;;;21019318;28;20184;-74
2022/09/24 12:58:45;;;;;;;1.70;1.23;;;;;;;;;;21034113;28;20212;-74
2022/09/24 13:08:47;;;;;;;3.73;1.27;;;;;;;;;;21062450;28;20536;-74
2022/09/24 13:19:01;;;;;;;3.57;1.27;;;;;;;;;;21072695;22;20290;-72
2022/09/24 13:29:04;;;;;;;2.40;1.50;;;;;;;;;;20982415;28;20212;-72
2022/09/24 13:39:13;;;;;;;2.80;1.40;;;;;;;;;;21025333;28;20228;-73
2022/09/24 13:49:18;;;;;;;2.10;1.30;;;;;;;;;;21008857;28;20200;-72
2022/09/24 13:59:19;;;;;;;2.73;1.67;;;;;;;;;;20953473;28;20830;-72
2022/09/24 14:09:22;;;;;;;1.23;1.00;;;;;;;;;;20985673;28;20704;-73
2022/09/24 14:19:24;;;;;;;5.20;2.67;;;;;;;;;;20947250;28;20224;-73
2022/09/24 14:29:27;;;;;;;1.57;1.20;;;;;;;;;;20915398;28;20636;-73
2022/09/24 14:39:29;;;;;;;1.43;1.03;;;;;;;;;;21022208;28;20761;-73
2022/09/24 14:49:42;;;;;;;1.37;1.03;;;;;;;;;;21025191;28;20221;-73
2022/09/24 14:59:45;;;;;;;1.57;1.20;;;17.90;99.90;;;;;;21038899;28;20255;-72
2022/09/24 15:09:51;;;;;;;2.37;0.90;;;;;;;;;;21021906;28;20247;-73
2022/09/24 15:19:56;;;;;;;1.80;1.17;;;;;;;;;;20970544;28;20225;-73
2022/09/24 15:29:59;;;;;;;2.13;1.23;;;;;;;;;;20954357;28;20221;-73
2022/09/24 15:40:05;;;;;;;2.33;1.50;;;;;;;;;;20948517;28;20286;-72
2022/09/24 15:50:08;;;;;;;1.17;0.90;;;;;;;;;;20976595;28;20221;-72
2022/09/24 16:00:16;;;;;;;1.50;1.10;;;17.10;99.90;;;;;;20934268;28;20699;-73
2022/09/24 16:10:18;;;;;;;2.00;1.37;;;;;;;;;;20951017;28;20425;-73
2022/09/24 16:20:21;;;;;;;2.40;1.13;;;;;;;;;;20940361;28;20559;-72
2022/09/24 16:30:22;;;;;;;2.30;1.40;;;;;;;;;;20989959;28;20806;-72
2022/09/24 16:40:25;;;;;;;1.83;1.00;;;;;;;;;;20944354;28;20245;-73
2022/09/24 16:50:27;;;;;;;1.90;1.00;;;;;;;;;;20929445;28;20798;-72
2022/09/24 17:00:28;;;;;;;3.40;1.10;;;;;;;;;;20927324;28;20700;-73
2022/09/24 17:10:31;;;;;;;1.47;0.90;;;;;;;;;;20947564;28;20268;-72
2022/09/24 17:20:33;;;;;;;1.40;0.90;;;;;;;;;;20942679;28;20237;-73
2022/09/24 17:30:36;;;;;;;1.20;0.80;;;;;;;;;;20929622;28;20266;-72
2022/09/24 17:40:38;;;;;;;1.80;1.10;;;;;;;;;;20928592;28;20228;-72
2022/09/24 17:50:42;;;;;;;3.10;1.10;;;;;;;;;;20928655;28;20531;-72
2022/09/24 18:00:44;;;;;;;0.70;0.60;;;;;;;;;;20948305;28;20664;-72
2022/09/24 18:10:47;;;;;;;1.30;0.70;;;;;;;;;;21026882;28;20225;-72
2022/09/24 18:20:50;;;;;;;0.87;0.70;;;;;;;;;;21009843;28;20612;-72
2022/09/24 18:31:02;;;;;;;1.50;0.90;;;;;;;;;;21010025;28;20204;-72
2022/09/24 18:41:08;;;;;;;2.43;1.10;;;;;;;;;;21012952;28;20234;-72
2022/09/24 18:51:18;;;;;;;1.20;0.60;;;;;;;;;;21023764;28;20213;-72
2022/09/24 19:01:20;;;;;;;1.17;0.70;;;;;;;;;;20993522;28;20695;-72
2022/09/24 19:11:22;;;;;;;1.47;0.93;;;;;;;;;;20940632;28;20217;-71
2022/09/24 19:21:24;;;;;;;4.80;1.73;;;;;;;;;;20956114;28;20233;-69
2022/09/24 19:31:28;;;;;;;1.83;0.90;;;;;;;;;;20940020;28;20253;-68
2022/09/24 19:41:30;;;;;;;2.00;1.00;;;;;;;;;;20939662;28;20274;-69
2022/09/24 19:51:33;;;;;;;2.00;1.10;;;15.70;99.90;;;;;;20936995;28;20205;-68
2022/09/24 20:01:36;;;;;;;1.60;1.30;;;;;;;;;;20970154;28;20621;-69
2022/09/24 20:11:38;;;;;;;2.37;1.20;;;;;;;;;;20936546;28;20263;-69
2022/09/24 20:21:40;;;;;;;2.17;1.27;;;;;;;;;;20934873;28;20231;-69
2022/09/24 20:31:52;;;;;;;3.23;1.20;;;;;;;;;;20937170;28;20688;-69
2022/09/24 20:42:04;;;;;;;1.77;1.33;;;15.60;99.90;;;;;;20937937;28;20213;-68
2022/09/24 20:52:07;;;;;;;2.00;1.37;;;;;;;;;;20987510;28;20225;-69
2022/09/24 21:02:09;;;;;;;2.43;1.20;;;15.50;99.90;;;;;;20935172;28;20271;-69
2022/09/24 21:12:11;;;;;;;2.33;1.30;;;;;;;;;;20927455;28;20263;-69
2022/09/24 21:22:13;;;;;;;2.20;1.33;;;;;;;;;;20935362;28;20217;-69
2022/09/24 21:32:16;;;;;;;2.33;1.50;;;15.40;99.90;;;;;;20951220;28;20225;-69
2022/09/24 21:42:18;;;;;;;2.87;1.40;;;;;;;;;;20934960;28;20221;-69
2022/09/24 21:52:20;;;;;;;2.73;1.73;;;;;;;;;;20950257;28;20696;-70
2022/09/24 22:02:22;;;;;;;2.90;1.80;;;;;;;;;;20950443;28;20263;-70
2022/09/24 22:12:24;;;;;;;2.47;1.60;;;;;;;;;;20950300;28;20571;-70
2022/09/24 22:22:26;;;;;;;2.97;1.83;;;;;;;;;;20946301;28;20266;-70
2022/09/24 22:32:28;;;;;;;2.80;1.90;;;;;;;;;;20947733;28;20209;-70
2022/09/24 22:42:30;;;;;;;2.80;1.90;;;;;;;;;;20948245;28;20233;-70
2022/09/24 22:52:32;;;;;;;2.57;1.67;;;;;;;;;;20946874;28;20201;-70
2022/09/24 23:02:34;;;;;;;2.77;1.90;;;15.30;99.90;;;;;;20946412;28;20786;-70
2022/09/24 23:12:36;;;;;;;2.70;1.60;;;;;;;;;;20943905;28;20221;-70
2022/09/24 23:22:39;;;;;;;2.40;1.80;;;;;;;;;;20960668;28;20225;-70
2022/09/24 23:32:40;;;;;;;2.47;1.93;;;;;;;;;;20943511;28;20205;-70
2022/09/24 23:42:43;;;;;;;6.37;2.10;;;;;;;;;;20959369;28;20232;-70
2022/09/24 23:52:45;;;;;;;1.80;1.33;;;;;;;;;;20942713;28;20354;-70
